sensor_id;sensor_type;location;lat;lon;timestamp;P1;durP1;ratioP1;P2;durP2;ratioP2
40176;SDS011;31511;46.176;9.874;2022-07-29T00:02:28;3.42;;;1.13;;
40176;SDS011;31511;46.176;9.874;2022-07-29T00:05:13;2.75;;;1.10;;
40176;SDS011;31511;46.176;9.874;2022-07-29T00:07:57;8.25;;;1.63;;
40176;SDS011;31511;46.176;9.874;2022-07-29T00:10:42;2.45;;;1.50;;
40176;SDS011;31511;46.176;9.874;2022-07-29T00:13:29;2.55;;;1.30;;
40176;SDS011;31511;46.176;9.874;2022-07-29T00:16:14;2.22;;;1.30;;
40176;SDS011;31511;46.176;9.874;2022-07-29T00:18:59;2.03;;;1.30;;
40176;SDS011;31511;46.176;9.874;2022-07-29T00:21:44;2.00;;;1.33;;
40176;SDS011;31511;46.176;9.874;2022-07-29T00:24:30;2.30;;;1.40;;
40176;SDS011;31511;46.176;9.874;2022-07-29T00:27:15;1.65;;;1.00;;
40176;SDS011;31511;46.176;9.874;2022-07-29T00:30:01;4.30;;;1.05;;
40176;SDS011;31511;46.176;9.874;2022-07-29T00:32:46;1.67;;;1.05;;
40176;SDS011;31511;46.176;9.874;2022-07-29T00:35:30;1.92;;;1.25;;
40176;SDS011;31511;46.176;9.874;2022-07-29T00:38:29;2.38;;;1.20;;
40176;SDS011;31511;46.176;9.874;2022-07-29T00:41:14;1.10;;;0.95;;
40176;SDS011;31511;46.176;9.874;2022-07-29T00:43:59;1.52;;;0.98;;
40176;SDS011;31511;46.176;9.874;2022-07-29T00:46:44;1.50;;;1.10;;
40176;SDS011;31511;46.176;9.874;2022-07-29T00:49:30;1.27;;;1.00;;
40176;SDS011;31511;46.176;9.874;2022-07-29T00:52:15;4.25;;;1.50;;
40176;SDS011;31511;46.176;9.874;2022-07-29T00:55:00;1.23;;;1.10;;
40176;SDS011;31511;46.176;9.874;2022-07-29T00:57:46;3.15;;;1.00;;
40176;SDS011;31511;46.176;9.874;2022-07-29T01:00:31;3.28;;;1.42;;
40176;SDS011;31511;46.176;9.874;2022-07-29T01:03:16;5.35;;;1.20;;
40176;SDS011;31511;46.176;9.874;2022-07-29T01:06:00;2.97;;;1.40;;
40176;SDS011;31511;46.176;9.874;2022-07-29T01:08:46;2.58;;;1.30;;
40176;SDS011;31511;46.176;9.874;2022-07-29T01:11:31;2.00;;;1.27;;
40176;SDS011;31511;46.176;9.874;2022-07-29T01:14:16;3.20;;;1.05;;
40176;SDS011;31511;46.176;9.874;2022-07-29T01:17:05;2.50;;;1.15;;
40176;SDS011;31511;46.176;9.874;2022-07-29T01:22:56;4.28;;;1.67;;
40176;SDS011;31511;46.176;9.874;2022-07-29T01:31:56;2.33;;;1.48;;
40176;SDS011;31511;46.176;9.874;2022-07-29T01:37:47;1.40;;;1.20;;
40176;SDS011;31511;46.176;9.874;2022-07-29T01:43:19;3.28;;;1.25;;
40176;SDS011;31511;46.176;9.874;2022-07-29T01:46:06;2.22;;;1.00;;
40176;SDS011;31511;46.176;9.874;2022-07-29T01:48:59;2.42;;;1.50;;
40176;SDS011;31511;46.176;9.874;2022-07-29T01:51:47;4.07;;;1.40;;
40176;SDS011;31511;46.176;9.874;2022-07-29T01:54:48;6.65;;;1.67;;
40176;SDS011;31511;46.176;9.874;2022-07-29T01:57:35;1.58;;;0.95;;
40176;SDS011;31511;46.176;9.874;2022-07-29T02:00:21;1.30;;;0.73;;
40176;SDS011;31511;46.176;9.874;2022-07-29T02:03:07;1.65;;;1.13;;
40176;SDS011;31511;46.176;9.874;2022-07-29T02:05:53;2.83;;;1.52;;
40176;SDS011;31511;46.176;9.874;2022-07-29T02:08:41;1.45;;;0.98;;
40176;SDS011;31511;46.176;9.874;2022-07-29T02:11:29;4.35;;;1.00;;
40176;SDS011;31511;46.176;9.874;2022-07-29T02:14:15;2.53;;;1.08;;
40176;SDS011;31511;46.176;9.874;2022-07-29T02:17:01;3.08;;;0.88;;
40176;SDS011;31511;46.176;9.874;2022-07-29T02:19:46;2.60;;;1.38;;
40176;SDS011;31511;46.176;9.874;2022-07-29T02:22:33;1.83;;;1.30;;
40176;SDS011;31511;46.176;9.874;2022-07-29T02:25:18;1.92;;;0.93;;
40176;SDS011;31511;46.176;9.874;2022-07-29T02:28:05;3.55;;;1.08;;
40176;SDS011;31511;46.176;9.874;2022-07-29T02:30:51;1.90;;;1.58;;
40176;SDS011;31511;46.176;9.874;2022-07-29T02:33:36;2.42;;;1.42;;
40176;SDS011;31511;46.176;9.874;2022-07-29T02:36:23;1.88;;;1.20;;
40176;SDS011;31511;46.176;9.874;2022-07-29T02:39:12;3.83;;;1.30;;
40176;SDS011;31511;46.176;9.874;2022-07-29T02:41:59;5.07;;;1.50;;
40176;SDS011;31511;46.176;9.874;2022-07-29T02:44:45;5.28;;;1.83;;
40176;SDS011;31511;46.176;9.874;2022-07-29T02:47:31;3.38;;;1.20;;
40176;SDS011;31511;46.176;9.874;2022-07-29T02:50:20;3.13;;;1.67;;
40176;SDS011;31511;46.176;9.874;2022-07-29T02:53:09;2.72;;;1.20;;
40176;SDS011;31511;46.176;9.874;2022-07-29T02:56:01;3.40;;;1.50;;
40176;SDS011;31511;46.176;9.874;2022-07-29T02:58:55;3.80;;;1.40;;
40176;SDS011;31511;46.176;9.874;2022-07-29T03:01:41;3.95;;;1.17;;
40176;SDS011;31511;46.176;9.874;2022-07-29T03:04:27;15.60;;;3.35;;
40176;SDS011;31511;46.176;9.874;2022-07-29T03:07:13;11.43;;;3.08;;
40176;SDS011;31511;46.176;9.874;2022-07-29T03:09:59;8.82;;;3.35;;
40176;SDS011;31511;46.176;9.874;2022-07-29T03:12:45;4.85;;;1.80;;
40176;SDS011;31511;46.176;9.874;2022-07-29T03:15:30;3.03;;;1.45;;
40176;SDS011;31511;46.176;9.874;2022-07-29T03:18:15;2.60;;;1.70;;
40176;SDS011;31511;46.176;9.874;2022-07-29T03:21:01;2.35;;;1.30;;
40176;SDS011;31511;46.176;9.874;2022-07-29T03:23:46;2.53;;;1.50;;
40176;SDS011;31511;46.176;9.874;2022-07-29T03:26:31;2.78;;;1.30;;
40176;SDS011;31511;46.176;9.874;2022-07-29T03:29:16;2.40;;;1.35;;
40176;SDS011;31511;46.176;9.874;2022-07-29T03:32:02;4.22;;;1.30;;
40176;SDS011;31511;46.176;9.874;2022-07-29T03:34:47;2.78;;;1.45;;
40176;SDS011;31511;46.176;9.874;2022-07-29T03:37:31;3.17;;;1.35;;
40176;SDS011;31511;46.176;9.874;2022-07-29T03:40:20;3.35;;;1.17;;
40176;SDS011;31511;46.176;9.874;2022-07-29T03:43:07;2.55;;;1.55;;
40176;SDS011;31511;46.176;9.874;2022-07-29T03:45:53;3.10;;;1.55;;
40176;SDS011;31511;46.176;9.874;2022-07-29T03:48:39;2.10;;;1.42;;
40176;SDS011;31511;46.176;9.874;2022-07-29T03:51:30;3.58;;;1.27;;
40176;SDS011;31511;46.176;9.874;2022-07-29T03:54:16;4.13;;;1.45;;
40176;SDS011;31511;46.176;9.874;2022-07-29T03:57:01;4.28;;;1.25;;
40176;SDS011;31511;46.176;9.874;2022-07-29T03:59:46;3.60;;;1.67;;
40176;SDS011;31511;46.176;9.874;2022-07-29T04:02:31;2.58;;;1.20;;
40176;SDS011;31511;46.176;9.874;2022-07-29T04:05:16;3.92;;;0.75;;
40176;SDS011;31511;46.176;9.874;2022-07-29T04:08:01;1.35;;;0.93;;
40176;SDS011;31511;46.176;9.874;2022-07-29T04:10:45;2.20;;;1.05;;
40176;SDS011;31511;46.176;9.874;2022-07-29T04:13:31;1.92;;;0.95;;
40176;SDS011;31511;46.176;9.874;2022-07-29T04:16:16;4.68;;;1.83;;
40176;SDS011;31511;46.176;9.874;2022-07-29T04:19:01;3.30;;;1.27;;
40176;SDS011;31511;46.176;9.874;2022-07-29T04:21:46;3.13;;;1.10;;
40176;SDS011;31511;46.176;9.874;2022-07-29T04:24:31;1.92;;;1.05;;
40176;SDS011;31511;46.176;9.874;2022-07-29T04:27:16;3.97;;;1.00;;
40176;SDS011;31511;46.176;9.874;2022-07-29T04:30:01;7.40;;;1.50;;
40176;SDS011;31511;46.176;9.874;2022-07-29T04:32:45;6.38;;;2.15;;
40176;SDS011;31511;46.176;9.874;2022-07-29T04:35:30;3.08;;;1.50;;
40176;SDS011;31511;46.176;9.874;2022-07-29T04:38:15;3.30;;;1.88;;
40176;SDS011;31511;46.176;9.874;2022-07-29T04:41:00;7.10;;;1.80;;
40176;SDS011;31511;46.176;9.874;2022-07-29T04:43:45;1.50;;;1.40;;
40176;SDS011;31511;46.176;9.874;2022-07-29T04:46:29;3.17;;;1.58;;
40176;SDS011;31511;46.176;9.874;2022-07-29T04:49:14;2.75;;;1.98;;
40176;SDS011;31511;46.176;9.874;2022-07-29T04:52:00;2.97;;;1.98;;
40176;SDS011;31511;46.176;9.874;2022-07-29T04:54:45;2.53;;;2.13;;
40176;SDS011;31511;46.176;9.874;2022-07-29T04:57:30;2.17;;;1.77;;
40176;SDS011;31511;46.176;9.874;2022-07-29T05:00:15;1.85;;;1.38;;
40176;SDS011;31511;46.176;9.874;2022-07-29T05:03:00;1.95;;;1.42;;
40176;SDS011;31511;46.176;9.874;2022-07-29T05:05:44;4.10;;;1.60;;
40176;SDS011;31511;46.176;9.874;2022-07-29T05:08:30;4.43;;;1.60;;
40176;SDS011;31511;46.176;9.874;2022-07-29T05:11:15;1.95;;;1.55;;
40176;SDS011;31511;46.176;9.874;2022-07-29T05:14:00;2.60;;;1.88;;
40176;SDS011;31511;46.176;9.874;2022-07-29T05:16:45;3.47;;;1.92;;
40176;SDS011;31511;46.176;9.874;2022-07-29T05:19:30;4.38;;;2.05;;
40176;SDS011;31511;46.176;9.874;2022-07-29T05:22:15;3.28;;;1.73;;
40176;SDS011;31511;46.176;9.874;2022-07-29T05:25:00;3.20;;;1.58;;
40176;SDS011;31511;46.176;9.874;2022-07-29T05:27:45;3.80;;;1.83;;
40176;SDS011;31511;46.176;9.874;2022-07-29T05:30:30;2.78;;;2.10;;
40176;SDS011;31511;46.176;9.874;2022-07-29T05:33:15;3.08;;;2.00;;
40176;SDS011;31511;46.176;9.874;2022-07-29T05:36:00;3.05;;;1.75;;
40176;SDS011;31511;46.176;9.874;2022-07-29T05:38:45;3.30;;;1.73;;
40176;SDS011;31511;46.176;9.874;2022-07-29T05:41:31;4.95;;;1.95;;
40176;SDS011;31511;46.176;9.874;2022-07-29T05:44:17;4.03;;;1.30;;
40176;SDS011;31511;46.176;9.874;2022-07-29T05:47:02;3.50;;;1.48;;
40176;SDS011;31511;46.176;9.874;2022-07-29T05:49:46;4.65;;;1.35;;
40176;SDS011;31511;46.176;9.874;2022-07-29T05:52:32;2.00;;;1.17;;
40176;SDS011;31511;46.176;9.874;2022-07-29T05:55:16;7.40;;;1.52;;
40176;SDS011;31511;46.176;9.874;2022-07-29T05:58:00;1.67;;;1.40;;
40176;SDS011;31511;46.176;9.874;2022-07-29T06:00:46;2.30;;;1.70;;
40176;SDS011;31511;46.176;9.874;2022-07-29T06:03:30;2.47;;;1.70;;
40176;SDS011;31511;46.176;9.874;2022-07-29T06:06:15;3.58;;;1.65;;
40176;SDS011;31511;46.176;9.874;2022-07-29T06:09:01;2.50;;;1.73;;
40176;SDS011;31511;46.176;9.874;2022-07-29T06:11:45;3.72;;;2.22;;
40176;SDS011;31511;46.176;9.874;2022-07-29T06:14:30;1.88;;;1.70;;
40176;SDS011;31511;46.176;9.874;2022-07-29T06:17:16;2.47;;;1.73;;
40176;SDS011;31511;46.176;9.874;2022-07-29T06:20:01;2.25;;;1.50;;
40176;SDS011;31511;46.176;9.874;2022-07-29T06:22:46;3.33;;;1.45;;
40176;SDS011;31511;46.176;9.874;2022-07-29T06:25:30;4.13;;;1.95;;
40176;SDS011;31511;46.176;9.874;2022-07-29T06:28:21;2.08;;;1.75;;
40176;SDS011;31511;46.176;9.874;2022-07-29T06:31:07;4.13;;;1.63;;
40176;SDS011;31511;46.176;9.874;2022-07-29T06:33:53;4.97;;;1.80;;
40176;SDS011;31511;46.176;9.874;2022-07-29T06:36:37;3.42;;;1.88;;
40176;SDS011;31511;46.176;9.874;2022-07-29T06:39:23;2.90;;;1.90;;
40176;SDS011;31511;46.176;9.874;2022-07-29T06:42:09;3.13;;;1.55;;
40176;SDS011;31511;46.176;9.874;2022-07-29T06:44:55;5.25;;;1.73;;
40176;SDS011;31511;46.176;9.874;2022-07-29T06:47:41;1.67;;;1.50;;
40176;SDS011;31511;46.176;9.874;2022-07-29T06:50:27;1.92;;;1.20;;
40176;SDS011;31511;46.176;9.874;2022-07-29T06:53:14;4.15;;;1.70;;
40176;SDS011;31511;46.176;9.874;2022-07-29T06:56:00;3.25;;;1.30;;
40176;SDS011;31511;46.176;9.874;2022-07-29T06:58:45;4.18;;;1.80;;
40176;SDS011;31511;46.176;9.874;2022-07-29T07:01:30;2.90;;;1.65;;
40176;SDS011;31511;46.176;9.874;2022-07-29T07:04:14;2.83;;;1.50;;
40176;SDS011;31511;46.176;9.874;2022-07-29T07:07:00;3.40;;;1.55;;
40176;SDS011;31511;46.176;9.874;2022-07-29T07:09:44;6.28;;;1.77;;
40176;SDS011;31511;46.176;9.874;2022-07-29T07:12:30;3.10;;;1.35;;
40176;SDS011;31511;46.176;9.874;2022-07-29T07:15:15;5.72;;;1.50;;
40176;SDS011;31511;46.176;9.874;2022-07-29T07:18:00;3.35;;;1.52;;
40176;SDS011;31511;46.176;9.874;2022-07-29T07:20:45;2.67;;;1.00;;
40176;SDS011;31511;46.176;9.874;2022-07-29T07:23:30;3.92;;;1.33;;
40176;SDS011;31511;46.176;9.874;2022-07-29T07:26:15;2.75;;;1.60;;
40176;SDS011;31511;46.176;9.874;2022-07-29T07:29:00;2.05;;;1.23;;
40176;SDS011;31511;46.176;9.874;2022-07-29T07:31:45;3.58;;;1.30;;
40176;SDS011;31511;46.176;9.874;2022-07-29T07:34:31;3.45;;;1.40;;
40176;SDS011;31511;46.176;9.874;2022-07-29T07:37:16;1.40;;;1.23;;
40176;SDS011;31511;46.176;9.874;2022-07-29T07:40:03;2.25;;;1.52;;
40176;SDS011;31511;46.176;9.874;2022-07-29T07:42:49;1.58;;;1.38;;
40176;SDS011;31511;46.176;9.874;2022-07-29T07:45:33;1.95;;;1.17;;
40176;SDS011;31511;46.176;9.874;2022-07-29T07:48:21;1.70;;;1.42;;
40176;SDS011;31511;46.176;9.874;2022-07-29T07:51:07;4.00;;;1.38;;
40176;SDS011;31511;46.176;9.874;2022-07-29T07:53:53;4.88;;;0.93;;
40176;SDS011;31511;46.176;9.874;2022-07-29T07:56:38;5.35;;;1.92;;
40176;SDS011;31511;46.176;9.874;2022-07-29T07:59:24;3.78;;;1.33;;
40176;SDS011;31511;46.176;9.874;2022-07-29T08:02:12;2.00;;;1.30;;
40176;SDS011;31511;46.176;9.874;2022-07-29T08:04:56;1.48;;;0.98;;
40176;SDS011;31511;46.176;9.874;2022-07-29T08:07:46;1.73;;;1.45;;
40176;SDS011;31511;46.176;9.874;2022-07-29T08:10:31;3.03;;;1.40;;
40176;SDS011;31511;46.176;9.874;2022-07-29T08:13:34;3.73;;;1.30;;
40176;SDS011;31511;46.176;9.874;2022-07-29T08:16:20;1.50;;;0.98;;
40176;SDS011;31511;46.176;9.874;2022-07-29T08:19:09;2.03;;;1.20;;
40176;SDS011;31511;46.176;9.874;2022-07-29T08:21:54;1.85;;;1.20;;
40176;SDS011;31511;46.176;9.874;2022-07-29T08:24:39;1.33;;;1.13;;
40176;SDS011;31511;46.176;9.874;2022-07-29T08:27:28;5.47;;;1.60;;
40176;SDS011;31511;46.176;9.874;2022-07-29T08:30:15;6.28;;;2.75;;
40176;SDS011;31511;46.176;9.874;2022-07-29T08:33:00;5.40;;;3.58;;
40176;SDS011;31511;46.176;9.874;2022-07-29T08:35:45;5.00;;;1.40;;
40176;SDS011;31511;46.176;9.874;2022-07-29T08:38:29;1.42;;;0.95;;
40176;SDS011;31511;46.176;9.874;2022-07-29T08:41:14;1.63;;;1.20;;
40176;SDS011;31511;46.176;9.874;2022-07-29T08:44:01;1.30;;;0.98;;
40176;SDS011;31511;46.176;9.874;2022-07-29T08:46:46;2.03;;;1.15;;
40176;SDS011;31511;46.176;9.874;2022-07-29T08:49:32;1.55;;;1.08;;
40176;SDS011;31511;46.176;9.874;2022-07-29T08:52:18;0.82;;;0.77;;
40176;SDS011;31511;46.176;9.874;2022-07-29T08:55:06;3.63;;;1.30;;
40176;SDS011;31511;46.176;9.874;2022-07-29T08:57:51;1.20;;;1.10;;
40176;SDS011;31511;46.176;9.874;2022-07-29T09:00:37;2.85;;;1.10;;
40176;SDS011;31511;46.176;9.874;2022-07-29T09:03:26;1.60;;;0.95;;
40176;SDS011;31511;46.176;9.874;2022-07-29T09:06:13;1.17;;;1.08;;
40176;SDS011;31511;46.176;9.874;2022-07-29T09:09:00;8.10;;;1.10;;
40176;SDS011;31511;46.176;9.874;2022-07-29T09:11:45;2.58;;;1.20;;
40176;SDS011;31511;46.176;9.874;2022-07-29T09:14:30;1.38;;;0.90;;
40176;SDS011;31511;46.176;9.874;2022-07-29T09:17:15;1.27;;;1.17;;
40176;SDS011;31511;46.176;9.874;2022-07-29T09:20:08;1.48;;;1.20;;
40176;SDS011;31511;46.176;9.874;2022-07-29T09:22:53;4.50;;;1.10;;
40176;SDS011;31511;46.176;9.874;2022-07-29T09:25:38;0.98;;;0.88;;
40176;SDS011;31511;46.176;9.874;2022-07-29T09:28:25;1.83;;;1.15;;
40176;SDS011;31511;46.176;9.874;2022-07-29T09:31:12;1.48;;;1.17;;
40176;SDS011;31511;46.176;9.874;2022-07-29T09:33:58;1.35;;;0.93;;
40176;SDS011;31511;46.176;9.874;2022-07-29T09:36:45;1.80;;;1.17;;
40176;SDS011;31511;46.176;9.874;2022-07-29T09:39:32;3.55;;;0.77;;
40176;SDS011;31511;46.176;9.874;2022-07-29T09:42:17;1.55;;;1.10;;
40176;SDS011;31511;46.176;9.874;2022-07-29T09:45:34;1.23;;;1.00;;
40176;SDS011;31511;46.176;9.874;2022-07-29T09:48:20;1.38;;;1.00;;
40176;SDS011;31511;46.176;9.874;2022-07-29T09:51:17;3.33;;;0.82;;
40176;SDS011;31511;46.176;9.874;2022-07-29T09:57:09;1.98;;;0.90;;
40176;SDS011;31511;46.176;9.874;2022-07-29T10:00:00;1.42;;;1.05;;
40176;SDS011;31511;46.176;9.874;2022-07-29T10:02:45;2.22;;;0.80;;
40176;SDS011;31511;46.176;9.874;2022-07-29T10:05:30;1.90;;;1.00;;
40176;SDS011;31511;46.176;9.874;2022-07-29T10:08:19;2.42;;;0.82;;
40176;SDS011;31511;46.176;9.874;2022-07-29T10:11:12;3.28;;;1.38;;
40176;SDS011;31511;46.176;9.874;2022-07-29T10:13:57;3.15;;;1.30;;
40176;SDS011;31511;46.176;9.874;2022-07-29T10:16:42;1.70;;;1.33;;
40176;SDS011;31511;46.176;9.874;2022-07-29T10:19:29;2.95;;;1.13;;
40176;SDS011;31511;46.176;9.874;2022-07-29T10:22:15;2.60;;;1.10;;
40176;SDS011;31511;46.176;9.874;2022-07-29T10:24:59;1.98;;;1.35;;
40176;SDS011;31511;46.176;9.874;2022-07-29T10:27:45;1.38;;;0.93;;
40176;SDS011;31511;46.176;9.874;2022-07-29T10:30:29;1.63;;;0.95;;
40176;SDS011;31511;46.176;9.874;2022-07-29T10:40:36;1.65;;;1.02;;
40176;SDS011;31511;46.176;9.874;2022-07-29T10:43:09;1.95;;;1.10;;
40176;SDS011;31511;46.176;9.874;2022-07-29T10:45:59;1.50;;;0.98;;
40176;SDS011;31511;46.176;9.874;2022-07-29T10:52:10;1.05;;;0.82;;
40176;SDS011;31511;46.176;9.874;2022-07-29T10:54:56;1.45;;;0.80;;
40176;SDS011;31511;46.176;9.874;2022-07-29T10:57:43;1.02;;;0.88;;
40176;SDS011;31511;46.176;9.874;2022-07-29T11:00:52;0.95;;;0.70;;
40176;SDS011;31511;46.176;9.874;2022-07-29T11:06:47;1.50;;;0.82;;
40176;SDS011;31511;46.176;9.874;2022-07-29T11:09:30;2.05;;;0.80;;
40176;SDS011;31511;46.176;9.874;2022-07-29T11:15:21;1.17;;;0.85;;
40176;SDS011;31511;46.176;9.874;2022-07-29T11:18:07;4.65;;;1.10;;
40176;SDS011;31511;46.176;9.874;2022-07-29T11:20:53;5.00;;;1.10;;
40176;SDS011;31511;46.176;9.874;2022-07-29T11:23:37;2.47;;;1.02;;
40176;SDS011;31511;46.176;9.874;2022-07-29T11:26:24;3.65;;;1.20;;
40176;SDS011;31511;46.176;9.874;2022-07-29T11:29:21;1.90;;;0.90;;
40176;SDS011;31511;46.176;9.874;2022-07-29T11:32:08;1.33;;;1.02;;
40176;SDS011;31511;46.176;9.874;2022-07-29T11:35:14;1.10;;;0.98;;
40176;SDS011;31511;46.176;9.874;2022-07-29T11:41:23;2.63;;;1.63;;
40176;SDS011;31511;46.176;9.874;2022-07-29T11:44:10;4.28;;;1.20;;
40176;SDS011;31511;46.176;9.874;2022-07-29T11:46:55;1.00;;;0.80;;
40176;SDS011;31511;46.176;9.874;2022-07-29T11:49:40;1.38;;;1.10;;
40176;SDS011;31511;46.176;9.874;2022-07-29T11:52:32;3.03;;;1.23;;
40176;SDS011;31511;46.176;9.874;2022-07-29T11:55:18;1.70;;;1.15;;
40176;SDS011;31511;46.176;9.874;2022-07-29T11:58:06;1.48;;;1.02;;
40176;SDS011;31511;46.176;9.874;2022-07-29T12:00:51;1.80;;;1.27;;
40176;SDS011;31511;46.176;9.874;2022-07-29T12:03:36;1.30;;;1.17;;
40176;SDS011;31511;46.176;9.874;2022-07-29T12:06:21;2.08;;;1.25;;
40176;SDS011;31511;46.176;9.874;2022-07-29T12:09:08;1.65;;;1.20;;
40176;SDS011;31511;46.176;9.874;2022-07-29T12:11:57;2.22;;;1.40;;
40176;SDS011;31511;46.176;9.874;2022-07-29T12:14:42;2.03;;;1.45;;
40176;SDS011;31511;46.176;9.874;2022-07-29T12:17:31;1.33;;;1.17;;
40176;SDS011;31511;46.176;9.874;2022-07-29T12:20:28;1.95;;;1.30;;
40176;SDS011;31511;46.176;9.874;2022-07-29T12:23:15;1.45;;;1.25;;
40176;SDS011;31511;46.176;9.874;2022-07-29T12:26:00;1.33;;;1.02;;
40176;SDS011;31511;46.176;9.874;2022-07-29T12:28:45;2.13;;;1.17;;
40176;SDS011;31511;46.176;9.874;2022-07-29T12:31:31;1.80;;;1.27;;
40176;SDS011;31511;46.176;9.874;2022-07-29T12:34:16;1.55;;;1.45;;
40176;SDS011;31511;46.176;9.874;2022-07-29T12:37:01;4.25;;;1.60;;
40176;SDS011;31511;46.176;9.874;2022-07-29T12:39:46;1.60;;;1.23;;
40176;SDS011;31511;46.176;9.874;2022-07-29T12:42:31;2.83;;;1.60;;
40176;SDS011;31511;46.176;9.874;2022-07-29T12:45:16;2.33;;;1.35;;
40176;SDS011;31511;46.176;9.874;2022-07-29T12:48:01;9.10;;;1.52;;
40176;SDS011;31511;46.176;9.874;2022-07-29T12:50:56;2.25;;;1.48;;
40176;SDS011;31511;46.176;9.874;2022-07-29T12:53:41;1.67;;;1.40;;
40176;SDS011;31511;46.176;9.874;2022-07-29T12:56:45;4.03;;;1.58;;
40176;SDS011;31511;46.176;9.874;2022-07-29T12:59:31;1.98;;;1.73;;
40176;SDS011;31511;46.176;9.874;2022-07-29T13:02:21;4.07;;;2.03;;
40176;SDS011;31511;46.176;9.874;2022-07-29T13:05:08;2.85;;;1.45;;
40176;SDS011;31511;46.176;9.874;2022-07-29T13:07:55;3.17;;;1.60;;
40176;SDS011;31511;46.176;9.874;2022-07-29T13:10:54;2.85;;;1.63;;
40176;SDS011;31511;46.176;9.874;2022-07-29T13:13:50;7.78;;;2.00;;
40176;SDS011;31511;46.176;9.874;2022-07-29T13:16:35;4.20;;;2.20;;
40176;SDS011;31511;46.176;9.874;2022-07-29T13:19:31;3.15;;;2.30;;
40176;SDS011;31511;46.176;9.874;2022-07-29T13:22:17;2.67;;;2.05;;
40176;SDS011;31511;46.176;9.874;2022-07-29T13:25:03;1.58;;;1.48;;
40176;SDS011;31511;46.176;9.874;2022-07-29T13:27:50;6.32;;;1.88;;
40176;SDS011;31511;46.176;9.874;2022-07-29T13:30:34;2.63;;;1.75;;
40176;SDS011;31511;46.176;9.874;2022-07-29T13:33:20;3.45;;;1.77;;
40176;SDS011;31511;46.176;9.874;2022-07-29T13:36:08;3.33;;;2.05;;
40176;SDS011;31511;46.176;9.874;2022-07-29T13:38:53;1.80;;;1.70;;
40176;SDS011;31511;46.176;9.874;2022-07-29T13:41:37;4.18;;;1.88;;
40176;SDS011;31511;46.176;9.874;2022-07-29T13:44:23;3.03;;;1.88;;
40176;SDS011;31511;46.176;9.874;2022-07-29T13:47:10;2.63;;;1.60;;
40176;SDS011;31511;46.176;9.874;2022-07-29T13:49:55;2.92;;;2.05;;
40176;SDS011;31511;46.176;9.874;2022-07-29T13:52:40;2.80;;;1.95;;
40176;SDS011;31511;46.176;9.874;2022-07-29T13:55:26;3.08;;;2.55;;
40176;SDS011;31511;46.176;9.874;2022-07-29T13:58:13;4.80;;;2.47;;
40176;SDS011;31511;46.176;9.874;2022-07-29T14:00:58;3.30;;;2.83;;
40176;SDS011;31511;46.176;9.874;2022-07-29T14:03:43;2.85;;;2.45;;
40176;SDS011;31511;46.176;9.874;2022-07-29T14:06:29;4.72;;;2.33;;
40176;SDS011;31511;46.176;9.874;2022-07-29T14:09:15;4.57;;;2.30;;
40176;SDS011;31511;46.176;9.874;2022-07-29T14:12:01;5.15;;;2.92;;
40176;SDS011;31511;46.176;9.874;2022-07-29T14:14:46;5.20;;;2.40;;
40176;SDS011;31511;46.176;9.874;2022-07-29T14:17:31;3.63;;;2.40;;
40176;SDS011;31511;46.176;9.874;2022-07-29T14:20:16;4.90;;;2.63;;
40176;SDS011;31511;46.176;9.874;2022-07-29T14:23:02;3.75;;;2.30;;
40176;SDS011;31511;46.176;9.874;2022-07-29T14:25:47;5.70;;;2.67;;
40176;SDS011;31511;46.176;9.874;2022-07-29T14:28:32;3.10;;;2.22;;
40176;SDS011;31511;46.176;9.874;2022-07-29T14:31:16;5.60;;;2.30;;
40176;SDS011;31511;46.176;9.874;2022-07-29T14:34:02;8.00;;;3.25;;
40176;SDS011;31511;46.176;9.874;2022-07-29T14:36:47;4.93;;;2.53;;
40176;SDS011;31511;46.176;9.874;2022-07-29T14:39:31;2.53;;;2.20;;
40176;SDS011;31511;46.176;9.874;2022-07-29T14:42:16;6.63;;;3.00;;
40176;SDS011;31511;46.176;9.874;2022-07-29T14:45:01;4.45;;;2.85;;
40176;SDS011;31511;46.176;9.874;2022-07-29T14:47:46;6.05;;;3.13;;
40176;SDS011;31511;46.176;9.874;2022-07-29T14:50:32;2.97;;;2.40;;
40176;SDS011;31511;46.176;9.874;2022-07-29T14:53:17;6.80;;;2.42;;
40176;SDS011;31511;46.176;9.874;2022-07-29T14:56:01;2.30;;;2.10;;
40176;SDS011;31511;46.176;9.874;2022-07-29T14:58:46;2.80;;;2.20;;
40176;SDS011;31511;46.176;9.874;2022-07-29T15:01:31;4.63;;;2.47;;
40176;SDS011;31511;46.176;9.874;2022-07-29T15:04:15;3.50;;;2.22;;
40176;SDS011;31511;46.176;9.874;2022-07-29T15:07:00;3.22;;;2.25;;
40176;SDS011;31511;46.176;9.874;2022-07-29T15:09:44;2.40;;;2.03;;
40176;SDS011;31511;46.176;9.874;2022-07-29T15:12:30;3.65;;;2.47;;
40176;SDS011;31511;46.176;9.874;2022-07-29T15:15:15;2.28;;;1.73;;
40176;SDS011;31511;46.176;9.874;2022-07-29T15:18:00;3.65;;;2.38;;
40176;SDS011;31511;46.176;9.874;2022-07-29T15:20:45;5.60;;;2.80;;
40176;SDS011;31511;46.176;9.874;2022-07-29T15:23:30;3.33;;;2.90;;
40176;SDS011;31511;46.176;9.874;2022-07-29T15:26:15;6.40;;;2.67;;
40176;SDS011;31511;46.176;9.874;2022-07-29T15:29:01;6.72;;;3.03;;
40176;SDS011;31511;46.176;9.874;2022-07-29T15:31:47;3.90;;;2.63;;
40176;SDS011;31511;46.176;9.874;2022-07-29T15:34:31;5.75;;;2.58;;
40176;SDS011;31511;46.176;9.874;2022-07-29T15:37:16;3.15;;;2.42;;
40176;SDS011;31511;46.176;9.874;2022-07-29T15:40:01;2.78;;;2.10;;
40176;SDS011;31511;46.176;9.874;2022-07-29T15:42:45;8.48;;;3.75;;
40176;SDS011;31511;46.176;9.874;2022-07-29T15:45:34;9.27;;;3.75;;
40176;SDS011;31511;46.176;9.874;2022-07-29T15:48:20;6.53;;;3.72;;
40176;SDS011;31511;46.176;9.874;2022-07-29T15:51:06;4.35;;;2.90;;
40176;SDS011;31511;46.176;9.874;2022-07-29T15:53:51;4.85;;;2.65;;
40176;SDS011;31511;46.176;9.874;2022-07-29T15:56:35;7.75;;;2.90;;
40176;SDS011;31511;46.176;9.874;2022-07-29T15:59:22;5.15;;;3.35;;
40176;SDS011;31511;46.176;9.874;2022-07-29T16:02:08;3.85;;;3.00;;
40176;SDS011;31511;46.176;9.874;2022-07-29T16:04:53;7.18;;;3.13;;
40176;SDS011;31511;46.176;9.874;2022-07-29T16:07:38;7.45;;;3.10;;
40176;SDS011;31511;46.176;9.874;2022-07-29T16:10:25;5.93;;;3.70;;
40176;SDS011;31511;46.176;9.874;2022-07-29T16:13:11;6.80;;;3.40;;
40176;SDS011;31511;46.176;9.874;2022-07-29T16:15:57;7.55;;;3.67;;
40176;SDS011;31511;46.176;9.874;2022-07-29T16:18:41;5.80;;;3.63;;
40176;SDS011;31511;46.176;9.874;2022-07-29T16:21:27;9.65;;;3.50;;
40176;SDS011;31511;46.176;9.874;2022-07-29T16:24:14;5.50;;;3.33;;
40176;SDS011;31511;46.176;9.874;2022-07-29T16:26:59;3.47;;;3.08;;
40176;SDS011;31511;46.176;9.874;2022-07-29T16:29:44;4.45;;;3.58;;
40176;SDS011;31511;46.176;9.874;2022-07-29T16:32:30;4.30;;;3.25;;
40176;SDS011;31511;46.176;9.874;2022-07-29T16:35:15;8.57;;;4.90;;
40176;SDS011;31511;46.176;9.874;2022-07-29T16:38:03;6.72;;;4.25;;
40176;SDS011;31511;46.176;9.874;2022-07-29T16:40:48;10.52;;;4.50;;
40176;SDS011;31511;46.176;9.874;2022-07-29T16:43:33;5.80;;;3.70;;
40176;SDS011;31511;46.176;9.874;2022-07-29T16:46:18;7.07;;;3.85;;
40176;SDS011;31511;46.176;9.874;2022-07-29T16:49:04;4.53;;;3.75;;
40176;SDS011;31511;46.176;9.874;2022-07-29T16:51:48;6.45;;;4.00;;
40176;SDS011;31511;46.176;9.874;2022-07-29T16:54:35;6.18;;;4.90;;
40176;SDS011;31511;46.176;9.874;2022-07-29T16:57:21;5.43;;;4.20;;
40176;SDS011;31511;46.176;9.874;2022-07-29T17:00:08;9.38;;;4.97;;
40176;SDS011;31511;46.176;9.874;2022-07-29T17:02:53;6.93;;;4.95;;
40176;SDS011;31511;46.176;9.874;2022-07-29T17:05:38;6.72;;;4.90;;
40176;SDS011;31511;46.176;9.874;2022-07-29T17:08:24;8.35;;;5.30;;
40176;SDS011;31511;46.176;9.874;2022-07-29T17:11:11;7.47;;;5.10;;
40176;SDS011;31511;46.176;9.874;2022-07-29T17:13:56;7.30;;;4.45;;
40176;SDS011;31511;46.176;9.874;2022-07-29T17:16:40;7.47;;;4.85;;
40176;SDS011;31511;46.176;9.874;2022-07-29T17:19:30;6.38;;;4.85;;
40176;SDS011;31511;46.176;9.874;2022-07-29T17:22:16;6.07;;;4.65;;